Time;durP1;ratioP1;P1;durP2;ratioP2;P2;SDS_P1;SDS_P2;PMS_P1;PMS_P2;Temp;Humidity;BMP_temperature;BMP_pressure;BME280_temperature;BME280_humidity;BME280_pressure;Samples;Min_cycle;Max_cycle;Signal;HPM_P1;HPM_P2
2022/04/21 00:00:40;;;;;;;5.63;2.30;;;10.40;99.90;;;;;;5049992;28;20480;-82
2022/04/21 00:03:09;;;;;;;3.73;2.50;;;10.40;99.90;;;;;;5053507;28;20462;-82
2022/04/21 00:05:36;;;;;;;7.10;3.07;;;10.40;99.90;;;;;;5056258;28;20456;-82
2022/04/21 00:08:03;;;;;;;4.43;2.50;;;10.40;99.90;;;;;;5057506;28;20887;-82
2022/04/21 00:10:31;;;;;;;4.43;2.67;;;10.40;99.90;;;;;;5057747;28;20475;-82
2022/04/21 00:12:58;;;;;;;4.27;2.60;;;10.30;99.90;;;;;;5060526;28;20459;-82
2022/04/21 00:15:26;;;;;;;8.13;3.40;;;10.30;99.90;;;;;;5060475;28;20464;-81
2022/04/21 00:17:53;;;;;;;3.83;2.27;;;10.20;99.90;;;;;;5060503;28;20461;-82
2022/04/21 00:20:21;;;;;;;4.57;2.33;;;10.20;99.90;;;;;;5060194;28;20838;-82
2022/04/21 00:25:33;;;;;;;3.80;2.73;;;10.10;99.90;;;;;;5059243;28;20447;-81
2022/04/21 00:30:28;;;;;;;3.77;2.20;;;10.00;99.90;;;;;;5032745;28;20526;-84
2022/04/21 00:32:55;;;;;;;5.20;2.27;;;9.90;99.90;;;;;;5042188;28;20474;-82
2022/04/21 00:35:23;;;;;;;9.80;2.40;;;9.80;99.90;;;;;;5041202;28;20449;-83
2022/04/21 00:37:52;;;;;;;4.10;2.80;;;9.80;99.90;;;;;;5041771;28;20528;-80
2022/04/21 00:40:21;;;;;;;5.90;2.50;;;9.70;99.90;;;;;;5041383;28;20496;-82
2022/04/21 00:42:49;;;;;;;3.60;2.43;;;9.70;99.90;;;;;;5040063;28;20445;-82
2022/04/21 00:45:16;;;;;;;4.10;2.17;;;9.70;99.90;;;;;;5041181;28;20456;-82
2022/04/21 00:47:45;;;;;;;8.80;2.93;;;9.60;99.90;;;;;;5041452;28;20458;-81
2022/04/21 00:50:15;;;;;;;4.63;2.87;;;9.60;99.90;;;;;;5040284;28;20471;-82
2022/04/21 00:52:44;;;;;;;4.87;2.83;;;9.60;99.90;;;;;;5042459;28;20486;-82
2022/04/21 00:55:12;;;;;;;5.30;2.97;;;9.50;99.90;;;;;;5043007;28;20457;-81
2022/04/21 00:57:41;;;;;;;4.40;3.03;;;9.50;99.90;;;;;;5041995;28;20547;-81
2022/04/21 01:00:09;;;;;;;4.20;2.33;;;9.40;99.90;;;;;;5041425;28;20579;-82
2022/04/21 01:02:50;;;;;;;4.23;2.43;;;9.40;99.90;;;;;;5041503;28;20456;-82
2022/04/21 01:05:18;;;;;;;3.87;2.70;;;9.40;99.90;;;;;;5041061;28;20445;-82
2022/04/21 01:07:47;;;;;;;3.60;2.33;;;9.40;99.90;;;;;;5040795;28;20484;-82
2022/04/21 01:10:15;;;;;;;13.63;3.73;;;9.40;99.90;;;;;;5040282;28;20475;-82
2022/04/21 01:12:44;;;;;;;8.13;3.10;;;9.40;99.90;;;;;;5040129;28;20488;-82
2022/04/21 01:15:11;;;;;;;4.67;2.60;;;9.40;99.90;;;;;;5040597;28;20452;-81
2022/04/21 01:17:39;;;;;;;4.60;2.97;;;9.40;99.90;;;;;;5040999;28;20559;-82
2022/04/21 01:20:08;;;;;;;3.47;2.03;;;9.40;99.90;;;;;;5040264;28;20502;-82
2022/04/21 01:22:36;;;;;;;4.30;3.10;;;9.40;99.90;;;;;;5041048;28;20464;-82
2022/04/21 01:25:03;;;;;;;6.40;3.20;;;9.40;99.90;;;;;;5040070;28;20842;-80
2022/04/21 01:27:33;;;;;;;4.40;2.90;;;9.30;99.90;;;;;;5044708;28;20641;-81
2022/04/21 01:30:02;;;;;;;5.30;2.83;;;9.20;99.90;;;;;;5058095;28;20576;-81
2022/04/21 01:32:28;;;;;;;4.10;3.10;;;9.20;99.90;;;;;;5050989;28;20491;-81
2022/04/21 01:34:55;;;;;;;4.97;2.80;;;9.20;99.90;;;;;;5051584;28;20992;-81
2022/04/21 01:42:53;;;;;;;5.00;2.87;;;8.90;99.90;;;;;;5036415;28;20550;-80
2022/04/21 01:45:20;;;;;;;5.20;3.33;;;8.80;99.90;;;;;;5039459;28;20962;-81
2022/04/21 01:47:47;;;;;;;5.87;3.20;;;8.80;99.90;;;;;;5040022;28;20548;-81
2022/04/21 01:50:14;;;;;;;5.47;3.10;;;8.80;99.90;;;;;;5040061;28;20472;-81
2022/04/21 01:52:41;;;;;;;5.20;2.63;;;8.70;99.90;;;;;;5039839;28;20983;-82
2022/04/21 01:55:10;;;;;;;7.90;3.43;;;8.70;99.90;;;;;;5040068;28;21058;-81
2022/04/21 01:57:37;;;;;;;3.77;2.90;;;8.70;99.90;;;;;;5039561;28;20456;-81
2022/04/21 02:00:04;;;;;;;5.33;2.93;;;8.70;99.90;;;;;;5037753;28;20509;-81
2022/04/21 02:02:32;;;;;;;6.10;2.90;;;8.70;99.90;;;;;;5037390;28;20456;-81
2022/04/21 02:04:59;;;;;;;6.07;3.47;;;8.70;99.90;;;;;;5039611;28;20498;-80
2022/04/21 02:07:27;;;;;;;5.23;3.30;;;8.60;99.90;;;;;;5039325;28;20464;-81
2022/04/21 02:09:54;;;;;;;7.40;3.40;;;8.60;99.90;;;;;;5037577;28;20531;-81
2022/04/21 02:12:23;;;;;;;4.97;3.40;;;8.50;99.90;;;;;;5039473;28;20885;-80
2022/04/21 02:14:51;;;;;;;4.23;3.00;;;8.50;99.90;;;;;;5039917;28;20448;-81
2022/04/21 02:17:19;;;;;;;6.17;3.30;;;8.40;99.90;;;;;;5039130;28;20458;-79
2022/04/21 02:19:45;;;;;;;6.07;3.13;;;8.30;99.90;;;;;;5039395;28;20858;-81
2022/04/21 02:22:12;;;;;;;6.20;3.50;;;8.20;99.90;;;;;;5037274;28;20466;-82
2022/04/21 02:24:39;;;;;;;5.33;2.90;;;8.30;99.90;;;;;;5037640;28;20553;-81
2022/04/21 02:27:06;;;;;;;7.20;3.20;;;8.20;99.90;;;;;;5038754;28;20461;-81
2022/04/21 02:29:34;;;;;;;8.43;3.90;;;8.20;99.90;;;;;;5037416;28;20488;-82
2022/04/21 02:32:01;;;;;;;5.10;3.27;;;8.10;99.90;;;;;;5036207;28;20451;-83
2022/04/21 02:34:29;;;;;;;7.90;3.80;;;8.10;99.90;;;;;;5038390;28;20975;-82
2022/04/21 02:36:56;;;;;;;4.80;2.77;;;8.10;99.90;;;;;;5038999;28;20462;-81
2022/04/21 02:39:23;;;;;;;5.50;3.50;;;8.10;99.90;;;;;;5039115;28;20494;-81
2022/04/21 02:41:50;;;;;;;5.17;3.40;;;8.00;99.90;;;;;;5042062;28;20446;-80
2022/04/21 02:44:17;;;;;;;4.17;3.30;;;7.90;99.90;;;;;;5041739;28;20462;-82
2022/04/21 02:46:45;;;;;;;5.40;3.60;;;7.90;99.90;;;;;;5042794;28;20461;-82
2022/04/21 02:49:12;;;;;;;7.80;3.67;;;7.90;99.90;;;;;;5040503;28;20913;-80
2022/04/21 02:51:39;;;;;;;5.70;3.30;;;7.80;99.90;;;;;;5041938;28;20452;-80
2022/04/21 02:59:34;;;;;;;6.00;4.40;;;7.80;99.90;;;;;;5039163;28;20500;-81
2022/04/21 03:02:03;;;;;;;5.87;3.23;;;7.70;99.90;;;;;;5041241;28;20457;-82
2022/04/21 03:04:30;;;;;;;5.07;3.30;;;7.70;99.90;;;;;;5041987;28;20456;-81
2022/04/21 03:06:56;;;;;;;5.17;3.63;;;7.60;99.90;;;;;;5041056;28;20453;-82
2022/04/21 03:09:23;;;;;;;4.20;3.57;;;7.60;99.90;;;;;;5040591;28;20476;-82
2022/04/21 03:11:50;;;;;;;4.50;3.50;;;7.60;99.90;;;;;;5041321;28;20452;-81
2022/04/21 03:14:19;;;;;;;10.00;3.77;;;7.60;99.90;;;;;;5042147;28;21005;-81
2022/04/21 03:16:46;;;;;;;5.93;3.07;;;7.50;99.90;;;;;;5040283;28;20461;-80
2022/04/21 03:19:14;;;;;;;9.00;3.73;;;7.50;99.90;;;;;;5040011;28;21031;-82
2022/04/21 03:24:25;;;;;;;5.17;3.30;;;7.40;99.90;;;;;;5040465;28;20452;-81
2022/04/21 03:26:53;;;;;;;7.50;3.83;;;7.30;99.90;;;;;;5041894;28;20460;-82
2022/04/21 03:29:21;;;;;;;7.27;3.33;;;7.30;99.90;;;;;;5042142;28;20473;-81
2022/04/21 03:31:48;;;;;;;8.93;3.73;;;7.30;99.90;;;;;;5042344;28;20481;-79
2022/04/21 03:34:17;;;;;;;4.63;3.20;;;7.30;99.90;;;;;;5041918;28;20814;-80
2022/04/21 03:36:47;;;;;;;8.87;3.80;;;7.20;99.90;;;;;;5043710;28;20452;-82
2022/04/21 03:39:14;;;;;;;6.17;3.77;;;7.20;99.90;;;;;;5042573;28;20571;-81
2022/04/21 03:41:41;;;;;;;7.60;5.07;;;7.20;99.90;;;;;;5041686;28;20965;-81
2022/04/21 03:44:09;;;;;;;6.10;3.67;;;7.20;99.90;;;;;;5043018;28;20460;-81
2022/04/21 03:46:36;;;;;;;6.63;3.90;;;7.20;99.90;;;;;;5042769;28;20457;-82
2022/04/21 03:49:03;;;;;;;5.23;3.50;;;7.10;99.90;;;;;;5041716;28;20483;-80
2022/04/21 03:51:31;;;;;;;6.23;4.57;;;7.10;99.90;;;;;;5041306;28;20551;-81
2022/04/21 03:53:58;;;;;;;7.17;3.90;;;7.00;99.90;;;;;;5040929;28;20457;-80
2022/04/21 03:56:26;;;;;;;4.47;3.40;;;7.00;99.90;;;;;;5040017;28;20460;-81
2022/04/21 03:58:53;;;;;;;4.90;3.27;;;7.00;99.90;;;;;;5038887;28;20480;-80
2022/04/21 04:01:20;;;;;;;7.27;3.50;;;7.00;99.90;;;;;;5041821;28;20568;-81
2022/04/21 04:03:46;;;;;;;9.30;4.37;;;6.90;99.90;;;;;;5040944;28;20492;-80
2022/04/21 04:11:44;;;;;;;5.67;3.87;;;6.90;99.90;;;;;;5043228;28;20460;-80
2022/04/21 04:14:10;;;;;;;5.40;3.87;;;6.80;99.90;;;;;;5042285;28;21034;-83
2022/04/21 04:16:37;;;;;;;4.23;3.30;;;6.80;99.90;;;;;;5043724;28;20945;-82
2022/04/21 04:19:07;;;;;;;5.33;3.70;;;6.70;99.90;;;;;;5041778;28;21048;-82
2022/04/21 04:21:34;;;;;;;11.30;3.97;;;6.70;99.90;;;;;;5042444;28;20460;-78
2022/04/21 04:24:03;;;;;;;7.47;4.13;;;6.70;99.90;;;;;;5037919;28;20464;-81
2022/04/21 04:26:30;;;;;;;6.20;4.07;;;6.60;99.90;;;;;;5036612;28;20449;-81
2022/04/21 04:28:56;;;;;;;7.23;3.60;;;6.60;99.90;;;;;;5036912;28;20509;-79
2022/04/21 04:31:23;;;;;;;8.13;4.30;;;6.60;99.90;;;;;;5036707;28;20969;-80
2022/04/21 04:33:50;;;;;;;10.53;4.27;;;6.50;99.90;;;;;;5017301;28;20516;-82
2022/04/21 04:36:17;;;;;;;4.90;3.50;;;6.50;99.90;;;;;;5022162;28;20488;-79
2022/04/21 04:38:44;;;;;;;6.30;4.07;;;6.50;99.90;;;;;;5043774;28;20479;-82
2022/04/21 04:43:57;;;;;;;6.20;4.47;;;6.50;99.90;;;;;;5023408;28;20413;-81
2022/04/21 04:46:35;;;;;;;6.70;4.40;;;6.60;99.90;;;;;;5031634;28;20460;-82
2022/04/21 04:49:02;;;;;;;5.93;4.20;;;6.60;99.90;;;;;;5043421;28;20551;-81
2022/04/21 04:51:29;;;;;;;5.60;4.23;;;6.60;99.90;;;;;;5042663;28;20454;-80
2022/04/21 04:53:55;;;;;;;7.40;4.63;;;6.60;99.90;;;;;;5043631;28;20456;-80
2022/04/21 04:56:24;;;;;;;5.47;3.70;;;6.60;99.90;;;;;;5042952;28;20451;-82
2022/04/21 04:58:52;;;;;;;7.60;4.33;;;6.60;99.90;;;;;;5041666;28;20469;-80
2022/04/21 05:01:26;;;;;;;8.30;4.23;;;6.70;99.90;;;;;;5042285;28;20484;-82
2022/04/21 05:03:54;;;;;;;8.00;5.03;;;6.70;99.90;;;;;;5043311;28;20551;-81
2022/04/21 05:06:21;;;;;;;8.33;3.90;;;6.70;99.90;;;;;;5043308;28;20455;-80
2022/04/21 05:08:48;;;;;;;8.10;4.23;;;6.80;99.90;;;;;;5043181;28;20996;-82
2022/04/21 05:11:15;;;;;;;4.63;3.70;;;6.80;99.90;;;;;;5045197;28;20445;-81
2022/04/21 05:13:43;;;;;;;8.13;4.57;;;6.90;99.90;;;;;;5044852;28;20453;-82
2022/04/21 05:16:10;;;;;;;8.20;4.10;;;6.90;99.90;;;;;;5044361;28;20449;-82
2022/04/21 05:18:38;;;;;;;9.03;4.10;;;7.00;99.90;;;;;;5044185;28;20930;-82
2022/04/21 05:21:05;;;;;;;7.70;4.57;;;7.00;99.90;;;;;;5044606;28;20572;-81
2022/04/21 05:23:34;;;;;;;5.97;4.00;;;7.10;99.90;;;;;;5043476;28;20987;-81
2022/04/21 05:26:02;;;;;;;6.90;4.40;;;7.20;99.90;;;;;;5044041;28;20475;-83
2022/04/21 05:28:30;;;;;;;9.13;4.30;;;7.20;99.90;;;;;;5043983;28;20484;-81
2022/04/21 05:30:58;;;;;;;7.53;4.53;;;7.30;99.90;;;;;;5044551;28;20916;-79
2022/04/21 05:33:26;;;;;;;6.70;4.30;;;7.40;99.90;;;;;;5043602;28;20481;-81
2022/04/21 05:35:54;;;;;;;6.37;3.90;;;7.50;99.90;;;;;;5043865;28;20458;-82
2022/04/21 05:38:22;;;;;;;4.40;3.83;;;7.60;99.90;;;;;;5043783;28;20480;-82
2022/04/21 05:40:49;;;;;;;7.17;3.80;;;7.70;99.90;;;;;;5044062;28;20489;-82
2022/04/21 05:43:18;;;;;;;4.50;3.30;;;7.90;99.90;;;;;;5043312;28;20458;-80
2022/04/21 05:45:46;;;;;;;11.37;4.60;;;7.90;99.90;;;;;;5043702;28;20455;-84
2022/04/21 05:48:15;;;;;;;7.20;4.27;;;8.00;99.90;;;;;;5040155;28;20458;-80
2022/04/21 05:50:44;;;;;;;4.97;3.67;;;8.10;99.90;;;;;;5044210;28;20455;-81
2022/04/21 05:53:19;;;;;;;6.83;4.10;;;8.10;99.90;;;;;;5046117;28;20511;-82
2022/04/21 05:55:47;;;;;;;7.97;4.30;;;8.20;99.90;;;;;;5040852;28;20865;-82
2022/04/21 05:58:13;;;;;;;7.13;3.97;;;8.30;99.90;;;;;;5045932;28;20968;-84
2022/04/21 06:00:40;;;;;;;4.83;3.70;;;8.50;99.90;;;;;;5039449;28;20727;-81
2022/04/21 06:03:07;;;;;;;6.60;4.23;;;8.50;99.90;;;;;;5033932;28;20459;-81
2022/04/21 06:05:35;;;;;;;5.40;3.60;;;8.60;99.90;;;;;;5034171;28;20918;-83
2022/04/21 06:08:06;;;;;;;4.77;3.47;;;8.80;99.90;;;;;;5036448;28;20469;-82
2022/04/21 06:10:32;;;;;;;9.30;4.57;;;9.00;99.90;;;;;;5039172;28;20451;-79
2022/04/21 06:13:01;;;;;;;7.83;3.73;;;9.00;99.90;;;;;;5037549;28;20447;-83
2022/04/21 06:15:28;;;;;;;6.43;4.10;;;9.10;99.90;;;;;;5041480;28;20458;-82
2022/04/21 06:17:54;;;;;;;6.37;3.77;;;9.20;99.90;;;;;;5040674;28;20478;-80
2022/04/21 06:20:27;;;;;;;5.80;3.73;;;9.30;99.90;;;;;;5043209;28;20513;-83
2022/04/21 06:22:59;;;;;;;5.20;4.07;;;9.40;99.90;;;;;;5043168;28;21080;-83
2022/04/21 06:25:28;;;;;;;7.40;4.17;;;9.60;99.90;;;;;;5047472;28;20450;-82
2022/04/21 06:27:55;;;;;;;4.77;3.60;;;9.70;99.90;;;;;;5048850;28;20515;-80
2022/04/21 06:30:23;;;;;;;4.90;3.27;;;9.80;99.90;;;;;;5046952;28;20491;-80
2022/04/21 06:32:52;;;;;;;5.70;3.70;;;9.80;99.90;;;;;;5049119;28;20456;-81
2022/04/21 06:35:24;;;;;;;5.63;3.80;;;9.90;99.90;;;;;;5044206;28;20459;-79
2022/04/21 06:37:50;;;;;;;5.97;3.90;;;10.00;99.90;;;;;;5032417;28;20445;-80
2022/04/21 06:40:26;;;;;;;8.03;3.50;;;10.00;99.90;;;;;;5047652;28;20495;-83
2022/04/21 06:43:02;;;;;;;4.73;3.50;;;10.00;99.90;;;;;;5039598;28;20977;-83
2022/04/21 06:48:16;;;;;;;5.40;3.63;;;10.30;99.90;;;;;;5060470;28;20446;-82
2022/04/21 06:50:45;;;;;;;6.93;3.50;;;10.40;99.90;;;;;;5036476;28;20491;-80
2022/04/21 06:53:12;;;;;;;4.83;3.37;;;10.50;99.90;;;;;;5030559;28;20453;-81
2022/04/21 06:55:46;;;;;;;6.37;3.77;;;10.60;99.90;;;;;;5047036;28;20450;-82
2022/04/21 06:58:16;;;;;;;8.33;3.70;;;10.70;99.90;;;;;;5028608;28;20512;-82
2022/04/21 07:00:43;;;;;;;7.00;4.20;;;10.80;99.90;;;;;;5046880;28;20534;-80
2022/04/21 07:03:14;;;;;;;5.50;3.90;;;10.80;99.90;;;;;;5047235;28;20460;-81
2022/04/21 07:05:41;;;;;;;5.43;3.33;;;10.90;99.90;;;;;;5044633;28;20463;-79
2022/04/21 07:08:08;;;;;;;6.93;4.00;;;10.80;99.90;;;;;;5044746;28;20985;-78
2022/04/21 07:10:38;;;;;;;7.40;3.20;;;10.90;99.90;;;;;;5040155;28;20475;-81
2022/04/21 07:13:10;;;;;;;7.77;3.70;;;11.00;99.90;;;;;;5038999;28;20456;-81
2022/04/21 07:15:37;;;;;;;5.10;3.30;;;11.60;99.90;;;;;;5048438;28;20508;-81
2022/04/21 07:18:04;;;;;;;10.13;4.10;;;11.20;99.90;;;;;;5048791;28;20543;-79
2022/04/21 07:20:33;;;;;;;4.83;3.37;;;11.30;99.90;;;;;;5049192;28;20475;-82
2022/04/21 07:23:00;;;;;;;5.63;3.73;;;11.40;99.90;;;;;;5051722;28;20455;-81
2022/04/21 07:25:27;;;;;;;4.67;3.57;;;11.60;99.90;;;;;;5051374;28;20460;-80
2022/04/21 07:27:54;;;;;;;5.03;3.70;;;11.60;99.90;;;;;;5054348;28;20452;-83
2022/04/21 07:30:22;;;;;;;6.30;3.10;;;11.70;99.90;;;;;;5063072;28;20487;-83
2022/04/21 07:32:49;;;;;;;5.17;3.00;;;11.90;99.90;;;;;;5060539;28;20439;-85
2022/04/21 07:35:17;;;;;;;7.30;3.43;;;11.90;99.90;;;;;;5062597;22;20501;-82
2022/04/21 07:37:44;;;;;;;6.17;3.40;;;12.20;99.90;;;;;;5055045;28;20841;-81
2022/04/21 07:40:11;;;;;;;4.60;3.00;;;12.20;99.90;;;;;;5070832;28;20452;-81
2022/04/21 07:42:37;;;;;;;10.40;4.17;;;12.70;99.90;;;;;;5059233;28;20461;-82
2022/04/21 07:45:05;;;;;;;6.77;4.30;;;13.00;99.90;;;;;;5056658;28;21034;-85
2022/04/21 07:47:33;;;;;;;12.93;3.70;;;13.20;99.90;;;;;;5054982;28;20825;-80
2022/04/21 07:50:01;;;;;;;4.40;2.90;;;13.30;99.90;;;;;;5054608;28;20457;-81
2022/04/21 07:55:17;;;;;;;7.53;3.50;;;13.30;99.90;;;;;;5046933;28;20469;-84
2022/04/21 07:57:45;;;;;;;6.27;2.90;;;13.40;99.90;;;;;;5055292;28;20448;-84
2022/04/21 08:00:14;;;;;;;8.17;3.40;;;13.40;99.90;;;;;;5036730;28;20448;-82
2022/04/21 08:02:46;;;;;;;8.40;3.63;;;13.40;99.90;;;;;;5035786;28;20466;-82
2022/04/21 08:05:14;;;;;;;6.13;2.73;;;14.00;99.90;;;;;;5055732;28;20476;-82
2022/04/21 08:07:41;;;;;;;4.50;2.70;;;14.50;99.90;;;;;;5055290;28;20454;-83
2022/04/21 08:10:10;;;;;;;4.57;2.60;;;15.30;99.90;;;;;;5055156;28;20487;-83
2022/04/21 08:12:41;;;;;;;4.00;2.80;;;16.10;99.90;;;;;;5050508;28;20457;-82
2022/04/21 08:15:08;;;;;;;5.27;2.70;;;17.00;99.90;;;;;;5055496;28;20483;-82
2022/04/21 08:17:36;;;;;;;5.90;2.97;;;18.30;99.90;;;;;;5055689;28;20468;-83
2022/04/21 08:20:06;;;;;;;5.73;3.10;;;18.50;99.90;;;;;;5054483;28;20578;-83
2022/04/21 08:22:33;;;;;;;4.13;2.60;;;18.30;99.90;;;;;;5055388;28;20499;-82
2022/04/21 08:33:14;;;;;;;7.40;3.00;;;16.80;99.90;;;;;;5050853;28;20937;-83
2022/04/21 08:35:44;;;;;;;3.60;2.43;;;16.90;99.90;;;;;;5055501;28;20479;-84
2022/04/21 08:38:10;;;;;;;4.47;3.30;;;17.80;99.90;;;;;;5056189;28;20451;-83
2022/04/21 08:40:38;;;;;;;4.27;2.60;;;17.60;99.90;;;;;;5055689;28;20466;-84
2022/04/21 08:43:13;;;;;;;6.00;2.23;;;18.20;99.90;;;;;;5053793;28;21020;-86
2022/04/21 08:45:43;;;;;;;3.43;2.33;;;20.20;99.90;;;;;;5054688;28;20535;-84
2022/04/21 08:48:11;;;;;;;3.67;2.43;;;21.40;99.90;;;;;;5055586;28;20485;-83
2022/04/21 08:50:38;;;;;;;7.37;2.63;;;22.00;99.90;;;;;;5049594;28;20466;-83
2022/04/21 08:53:08;;;;;;;6.40;2.97;;;21.00;98.70;;;;;;5063285;28;20459;-84
2022/04/21 08:55:35;;;;;;;7.40;2.67;;;20.00;98.10;;;;;;5075807;28;20476;-85
2022/04/21 08:58:02;;;;;;;3.80;2.60;;;20.20;99.40;;;;;;5074813;28;20443;-83
2022/04/21 09:00:31;;;;;;;6.20;3.47;;;20.50;98.40;;;;;;5075239;28;20459;-84
2022/04/21 09:02:58;;;;;;;4.60;2.77;;;20.40;97.00;;;;;;5074219;28;20544;-85
2022/04/21 09:05:29;;;;;;;5.70;2.73;;;20.00;96.60;;;;;;5057405;28;20473;-84
2022/04/21 09:07:57;;;;;;;4.13;2.70;;;19.90;96.50;;;;;;5056190;28;20447;-85
2022/04/21 09:10:28;;;;;;;4.57;2.97;;;19.60;96.10;;;;;;5056175;28;20465;-85
2022/04/21 09:12:56;;;;;;;4.17;2.30;;;19.20;96.80;;;;;;5056593;28;20876;-84
2022/04/21 09:15:25;;;;;;;5.80;2.73;;;19.30;96.00;;;;;;5064598;28;20498;-84
2022/04/21 09:17:53;;;;;;;3.47;2.70;;;19.10;95.00;;;;;;5068277;28;20448;-82
2022/04/21 09:20:21;;;;;;;4.83;2.57;;;19.20;96.50;;;;;;5067143;28;20819;-83
2022/04/21 09:22:52;;;;;;;4.60;2.57;;;19.70;97.30;;;;;;5064029;28;21061;-84
2022/04/21 09:25:19;;;;;;;6.87;2.37;;;19.40;94.50;;;;;;5058599;28;20478;-85
2022/04/21 09:27:49;;;;;;;5.47;2.30;;;18.60;92.80;;;;;;5059188;28;20439;-85
2022/04/21 09:30:16;;;;;;;5.30;2.30;;;18.60;94.20;;;;;;5057735;28;20545;-85
2022/04/21 09:32:51;;;;;;;5.13;2.43;;;18.30;96.80;;;;;;5060129;28;20449;-85
2022/04/21 09:35:18;;;;;;;4.67;2.70;;;18.10;95.70;;;;;;5056926;28;20481;-84
2022/04/21 09:37:49;;;;;;;4.30;2.20;;;17.80;95.50;;;;;;5056152;28;21011;-85
2022/04/21 09:40:18;;;;;;;4.47;2.33;;;17.70;96.10;;;;;;5056086;28;20861;-84
2022/04/21 09:42:52;;;;;;;5.40;2.87;;;17.60;95.60;;;;;;5057279;28;20490;-84
2022/04/21 09:48:18;;;;;;;4.63;2.37;;;17.40;96.80;;;;;;5057325;28;20574;-84
2022/04/21 09:50:49;;;;;;;6.90;3.43;;;17.40;96.50;;;;;;5058602;28;20440;-84
2022/04/21 09:53:19;;;;;;;4.90;3.23;;;17.20;96.80;;;;;;5059120;28;20457;-85
2022/04/21 09:55:46;;;;;;;5.17;3.07;;;17.60;98.60;;;;;;5056282;28;20524;-84
2022/04/21 09:58:14;;;;;;;6.30;3.03;;;17.70;99.60;;;;;;5058616;28;20541;-85
2022/04/21 10:00:42;;;;;;;6.00;2.80;;;17.50;97.20;;;;;;5064609;28;20456;-83
2022/04/21 10:03:10;;;;;;;3.70;2.60;;;16.90;97.60;;;;;;5058346;28;20459;-85
2022/04/21 10:05:39;;;;;;;4.73;3.00;;;16.40;98.30;;;;;;5056008;28;21072;-84
2022/04/21 10:08:08;;;;;;;6.33;3.10;;;16.40;99.50;;;;;;5056531;28;20473;-85
2022/04/21 10:10:36;;;;;;;5.47;3.73;;;16.30;99.50;;;;;;5055912;28;20454;-86
2022/04/21 10:13:05;;;;;;;5.57;3.30;;;16.40;99.90;;;;;;5056114;28;20457;-83
2022/04/21 10:15:34;;;;;;;6.83;2.60;;;16.40;98.60;;;;;;5056435;28;20566;-85
2022/04/21 10:18:02;;;;;;;6.63;2.87;;;16.50;99.90;;;;;;5056295;28;20450;-84
2022/04/21 10:20:32;;;;;;;4.53;2.53;;;16.40;99.90;;;;;;5056437;28;20455;-85
2022/04/21 10:23:01;;;;;;;4.80;2.57;;;16.40;99.80;;;;;;5053845;28;20507;-85
2022/04/21 10:25:39;;;;;;;4.60;3.73;;;16.20;99.90;;;;;;5053915;28;20524;-84
2022/04/21 10:28:38;;;;;;;5.00;1.90;;;16.40;99.90;;;;;;5052615;28;20454;-82
2022/04/21 10:31:30;;;;;;;5.60;2.00;;;16.80;99.90;;;;;;5053400;28;20451;-83
2022/04/21 10:34:01;;;;;;;4.63;2.53;;;16.90;97.90;;;;;;5053213;28;20451;-84
2022/04/21 10:36:35;;;;;;;3.50;2.17;;;16.70;97.90;;;;;;5052817;28;20487;-83
2022/04/21 10:39:26;;;;;;;6.23;2.70;;;17.00;99.70;;;;;;5052630;28;20457;-84
2022/04/21 10:42:16;;;;;;;5.93;2.23;;;17.20;99.90;;;;;;5053401;28;20962;-84
2022/04/21 10:44:52;;;;;;;4.60;2.40;;;17.30;99.70;;;;;;5053741;28;20861;-85
2022/04/21 10:47:36;;;;;;;7.43;2.70;;;17.50;99.80;;;;;;5053290;28;20954;-83
2022/04/21 10:50:16;;;;;;;5.50;2.70;;;17.20;98.10;;;;;;5053648;28;20471;-83
2022/04/21 10:58:50;;;;;;;5.63;3.30;;;17.60;99.80;;;;;;5053626;28;20550;-83
2022/04/21 11:01:31;;;;;;;4.70;3.13;;;17.90;99.20;;;;;;5055616;28;20444;-82
2022/04/21 11:04:13;;;;;;;4.43;2.77;;;18.40;98.20;;;;;;5057152;28;20457;-85
2022/04/21 11:06:45;;;;;;;6.00;2.53;;;18.70;99.90;;;;;;5069487;28;20421;-84
2022/04/21 11:09:35;;;;;;;5.87;3.00;;;19.50;97.90;;;;;;5056237;28;20833;-84
2022/04/21 11:12:02;;;;;;;3.90;2.60;;;21.40;99.60;;;;;;5056081;28;20454;-84
2022/04/21 11:14:31;;;;;;;3.90;2.57;;;23.30;96.40;;;;;;5057395;28;20451;-83
2022/04/21 11:16:58;;;;;;;5.43;2.97;;;25.50;92.00;;;;;;5057693;28;20459;-84
2022/04/21 11:19:53;;;;;;;9.70;2.87;;;25.90;84.40;;;;;;5057570;28;20966;-84
2022/04/21 11:22:40;;;;;;;4.73;2.90;;;26.30;79.90;;;;;;5045212;28;20486;-85
2022/04/21 11:25:08;;;;;;;5.30;2.80;;;27.00;71.60;;;;;;5057083;28;20472;-86
2022/04/21 11:27:42;;;;;;;5.03;3.00;;;26.80;68.80;;;;;;5059176;28;20816;-84
2022/04/21 11:30:11;;;;;;;4.50;2.80;;;27.20;66.60;;;;;;5057607;28;20462;-84
2022/04/21 11:32:38;;;;;;;6.10;3.13;;;27.30;68.10;;;;;;5057325;28;20459;-84
2022/04/21 11:35:09;;;;;;;7.73;2.30;;;28.30;68.80;;;;;;5057258;28;20482;-86
2022/04/21 11:38:01;;;;;;;4.20;2.43;;;27.40;61.60;;;;;;5055401;28;20459;-84
2022/04/21 11:40:31;;;;;;;3.70;2.40;;;25.90;59.70;;;;;;5029144;28;20490;-85
2022/04/21 11:42:59;;;;;;;5.60;2.93;;;24.50;61.30;;;;;;5058344;28;20495;-85
2022/04/21 11:45:28;;;;;;;5.07;2.80;;;23.00;61.50;;;;;;5058155;28;20554;-84
2022/04/21 11:47:55;;;;;;;4.60;3.10;;;23.00;66.30;;;;;;5057398;28;20447;-85
2022/04/21 11:50:24;;;;;;;4.40;2.80;;;24.20;67.70;;;;;;5057874;28;20538;-85
2022/04/21 11:52:53;;;;;;;5.63;3.30;;;26.50;73.00;;;;;;5060209;28;20439;-83
2022/04/21 11:55:27;;;;;;;5.23;3.30;;;26.80;61.60;;;;;;5059014;28;20474;-86
2022/04/21 11:57:54;;;;;;;5.50;2.90;;;27.70;62.40;;;;;;5058496;28;20450;-83
2022/04/21 12:08:39;;;;;;;5.83;3.07;;;28.50;64.20;;;;;;5039828;28;20409;-83
2022/04/21 12:11:10;;;;;;;6.07;3.17;;;27.50;60.20;;;;;;5043755;28;20985;-83
2022/04/21 12:13:37;;;;;;;5.17;2.77;;;26.10;59.70;;;;;;5039564;28;20460;-85
2022/04/21 12:16:05;;;;;;;4.53;2.70;;;26.10;67.80;;;;;;5038058;28;20473;-84
2022/04/21 12:18:46;;;;;;;5.23;2.90;;;28.10;70.80;;;;;;5056860;28;20538;-83
2022/04/21 12:21:13;;;;;;;3.93;2.60;;;30.60;66.50;;;;;;5058492;28;20462;-83
2022/04/21 12:23:40;;;;;;;3.97;3.00;;;31.10;60.50;;;;;;5059439;28;20484;-83
2022/04/21 12:26:09;;;;;;;7.00;2.93;;;28.70;57.30;;;;;;5059963;28;20478;-85
2022/04/21 12:28:47;;;;;;;6.03;3.63;;;28.10;58.40;;;;;;5058204;28;20444;-85
2022/04/21 12:31:20;;;;;;;4.50;3.20;;;26.30;58.40;;;;;;5058886;28;20474;-85
2022/04/21 12:33:50;;;;;;;4.97;2.77;;;25.30;59.50;;;;;;5059165;28;20493;-86
2022/04/21 12:36:26;;;;;;;8.13;3.87;;;24.10;62.60;;;;;;5058670;28;20479;-84
2022/04/21 12:39:01;;;;;;;4.43;2.70;;;23.30;64.20;;;;;;5038930;28;20937;-84
2022/04/21 12:41:30;;;;;;;6.63;3.63;;;23.10;66.90;;;;;;5039818;28;20451;-85
2022/04/21 12:43:57;;;;;;;3.80;3.20;;;22.30;65.30;;;;;;5037373;28;20926;-85
2022/04/21 12:46:27;;;;;;;5.00;2.90;;;22.40;72.40;;;;;;5038768;28;20522;-84
2022/04/21 12:48:54;;;;;;;5.60;3.53;;;23.30;69.80;;;;;;5038797;28;20429;-85
2022/04/21 12:51:22;;;;;;;4.20;3.13;;;23.70;66.90;;;;;;5038424;28;20451;-84
2022/04/21 12:53:56;;;;;;;4.03;3.07;;;23.30;71.50;;;;;;5047082;28;20803;-84
2022/04/21 12:56:34;;;;;;;3.97;3.27;;;23.40;70.60;;;;;;5066393;28;20474;-86
2022/04/21 12:59:01;;;;;;;7.73;3.80;;;23.10;69.10;;;;;;5063870;28;20493;-85
2022/04/21 13:01:28;;;;;;;5.00;3.70;;;22.90;69.50;;;;;;5059515;28;20478;-84
2022/04/21 13:03:55;;;;;;;7.97;3.07;;;23.20;71.10;;;;;;5059244;28;20491;-85
2022/04/21 13:06:29;;;;;;;4.90;2.90;;;24.70;74.80;;;;;;5060075;28;20899;-85
2022/04/21 13:08:56;;;;;;;8.03;3.87;;;27.20;66.00;;;;;;5059761;28;20444;-85
2022/04/21 13:11:23;;;;;;;4.73;3.77;;;28.50;65.60;;;;;;5058296;28;20451;-84
2022/04/21 13:13:53;;;;;;;4.63;3.70;;;30.10;62.40;;;;;;5058921;28;20538;-85
2022/04/21 13:16:20;;;;;;;5.90;3.27;;;31.60;61.00;;;;;;5059662;28;20475;-84
2022/04/21 13:18:47;;;;;;;8.30;3.77;;;30.50;58.80;;;;;;5058320;28;20463;-84
2022/04/21 13:23:58;;;;;;;4.90;3.40;;;31.80;58.50;;;;;;5058519;28;20517;-84
2022/04/21 13:26:28;;;;;;;5.80;3.50;;;31.40;57.30;;;;;;5059533;28;20476;-84
2022/04/21 13:28:58;;;;;;;4.13;3.53;;;31.80;54.80;;;;;;5057816;28;20462;-85
2022/04/21 13:34:10;;;;;;;4.40;3.83;;;30.90;54.70;;;;;;5062106;28;20811;-85
2022/04/21 13:36:37;;;;;;;4.50;3.60;;;30.60;54.10;;;;;;5081794;22;20493;-81
2022/04/21 13:39:04;;;;;;;3.93;3.10;;;30.20;54.00;;;;;;5021665;28;20462;-84
2022/04/21 13:41:31;;;;;;;10.50;4.00;;;30.60;55.20;;;;;;5010886;28;20454;-82
2022/04/21 13:43:59;;;;;;;5.40;3.73;;;30.20;53.40;;;;;;5027723;28;20544;-82
2022/04/21 13:46:28;;;;;;;8.20;3.47;;;30.00;55.70;;;;;;5030986;28;20941;-82
2022/04/21 13:48:56;;;;;;;7.40;5.57;;;29.60;55.40;;;;;;5030496;28;20465;-83
2022/04/21 13:51:23;;;;;;;5.70;4.23;;;30.20;55.40;;;;;;5020630;28;20517;-84
2022/04/21 13:53:49;;;;;;;4.60;2.90;;;31.20;56.30;;;;;;5025563;28;20548;-83
2022/04/21 13:56:16;;;;;;;4.60;3.17;;;31.50;54.50;;;;;;5029925;28;20544;-83
2022/04/21 13:58:43;;;;;;;7.30;3.80;;;32.20;54.00;;;;;;5030498;28;20489;-83
2022/04/21 14:01:11;;;;;;;4.27;3.03;;;31.00;52.90;;;;;;5031201;28;20517;-82
2022/04/21 14:03:38;;;;;;;5.77;3.70;;;30.60;54.40;;;;;;5031259;28;20489;-83